Time;durP1;ratioP1;P1;durP2;ratioP2;P2;SDS_P1;SDS_P2;PMS_P1;PMS_P2;Temp;Humidity;BMP_temperature;BMP_pressure;BME280_temperature;BME280_humidity;BME280_pressure;Samples;Min_cycle;Max_cycle;Signal;HPM_P1;HPM_P2
2021/05/11 00:00:20;;;;;;;0.50;0.50;;;;;;;11.52;81.21;96162.69;29395;202;63005;-58
2021/05/11 00:00:51;;;;;;;0.50;0.50;;;;;;;11.56;80.90;96160.13;29395;209;63009;-57
2021/05/11 00:01:22;;;;;;;0.50;0.50;;;;;;;11.55;81.20;96158.53;29395;216;63005;-57
2021/05/11 00:01:53;;;;;;;0.50;0.50;;;;;;;11.55;80.79;96147.66;29395;283;63009;-57
2021/05/11 00:02:26;;;;;;;0.50;0.50;;;;;;;11.52;80.89;96146.38;29395;225;63005;-57
2021/05/11 00:02:58;;;;;;;0.50;0.50;;;;;;;11.49;81.58;96148.91;29395;258;63009;-57
2021/05/11 00:03:29;;;;;;;0.50;0.50;;;;;;;11.43;82.11;96146.34;29395;203;63005;-57
2021/05/11 00:04:00;;;;;;;0.50;0.50;;;;;;;11.41;81.54;96142.38;29394;210;64009;-57
2021/05/11 00:04:32;;;;;;;0.50;0.50;;;;;;;11.38;81.76;96134.84;29395;379;63004;-57
2021/05/11 00:05:05;;;;;;;0.50;0.50;;;;;;;11.36;82.07;96137.09;29395;248;63009;-57
2021/05/11 00:05:37;;;;;;;0.50;0.50;;;;;;;11.33;82.39;96137.72;29395;209;63004;-57
2021/05/11 00:06:10;;;;;;;0.50;0.50;;;;;;;11.30;82.32;96133.72;29395;222;63004;-57
2021/05/11 00:06:42;;;;;;;0.50;0.50;;;;;;;11.29;82.52;96137.53;29394;212;64004;-57
2021/05/11 00:07:13;;;;;;;0.50;0.50;;;;;;;11.27;82.37;96131.63;29394;255;64027;-57
2021/05/11 00:07:45;;;;;;;0.50;0.50;;;;;;;11.27;82.61;96134.34;29395;225;63005;-57
2021/05/11 00:08:16;;;;;;;0.50;0.50;;;;;;;11.26;82.38;96134.66;29395;276;63009;-57
2021/05/11 00:08:47;;;;;;;0.50;0.50;;;;;;;11.26;82.98;96142.81;29395;224;63005;-57
2021/05/11 00:09:18;;;;;;;0.50;0.50;;;;;;;11.25;82.38;96136.56;29395;268;63009;-57
2021/05/11 00:09:50;;;;;;;0.50;0.50;;;;;;;11.23;82.83;96133.38;29394;233;64005;-57
2021/05/11 00:10:25;;;;;;;0.50;0.50;;;;;;;11.21;82.97;96134.78;29395;224;63009;-57
2021/05/11 00:10:58;;;;;;;0.50;0.50;;;;;;;11.19;83.23;96132.41;29395;218;63005;-57
2021/05/11 00:11:29;;;;;;;0.50;0.50;;;;;;;11.19;83.13;96129.69;29395;212;63009;-57
2021/05/11 00:12:00;;;;;;;0.50;0.50;;;;;;;11.20;83.14;96133.19;29395;209;63004;-57
2021/05/11 00:12:31;;;;;;;0.50;0.50;;;;;;;11.20;82.95;96128.56;29395;271;63009;-57
2021/05/11 00:13:03;;;;;;;0.50;0.50;;;;;;;11.19;83.22;96129.69;29395;226;63004;-57
2021/05/11 00:13:37;;;;;;;0.50;0.50;;;;;;;11.21;82.64;96119.31;29395;208;63009;-57
2021/05/11 00:14:09;;;;;;;0.50;0.50;;;;;;;11.22;82.74;96131.75;29395;202;63004;-57
2021/05/11 00:14:46;;;;;;;0.50;0.50;;;;;;;11.25;82.81;96124.91;29394;202;64008;-57
2021/05/11 00:15:21;;;;;;;0.50;0.50;;;;;;;11.27;82.77;96128.91;29395;257;63005;-57
2021/05/11 00:15:52;;;;;;;0.50;0.50;;;;;;;11.28;82.40;96122.37;29395;295;63009;-57
2021/05/11 00:16:23;;;;;;;0.50;0.50;;;;;;;11.30;82.39;96130.19;29395;222;63005;-57
2021/05/11 00:16:55;;;;;;;0.50;0.50;;;;;;;11.33;82.46;96127.66;29395;387;63009;-57
2021/05/11 00:17:26;;;;;;;0.50;0.50;;;;;;;11.36;82.31;96128.94;29395;215;63005;-57
2021/05/11 00:17:58;;;;;;;0.50;0.50;;;;;;;11.37;81.86;96125.91;29395;211;63009;-57
2021/05/11 00:18:29;;;;;;;0.50;0.50;;;;;;;11.38;82.03;96130.22;29395;215;63011;-57
2021/05/11 00:19:03;;;;;;;0.50;0.50;;;;;;;11.38;82.01;96124.78;29394;246;64009;-57
2021/05/11 00:19:36;;;;;;;0.50;0.50;;;;;;;11.39;81.73;96126.41;29395;205;63004;-57
2021/05/11 00:20:08;;;;;;;0.50;0.50;;;;;;;11.39;81.98;96131.81;29395;278;63009;-57
2021/05/11 00:20:41;;;;;;;0.50;0.50;;;;;;;11.39;81.91;96126.41;29395;240;63004;-57
2021/05/11 00:21:13;;;;;;;0.50;0.50;;;;;;;11.37;82.05;96128.63;29395;286;63009;-57
2021/05/11 00:21:44;;;;;;;0.50;0.50;;;;;;;11.36;82.25;96132.47;29394;227;64004;-58
2021/05/11 00:22:15;;;;;;;0.50;0.50;;;;;;;11.34;82.66;96123.03;29395;279;63008;-57
2021/05/11 00:22:48;;;;;;;0.50;0.50;;;;;;;11.32;82.75;96131.47;29395;236;63005;-56
2021/05/11 00:23:19;;;;;;;0.50;0.50;;;;;;;11.30;82.62;96128.28;29395;339;63009;-57
2021/05/11 00:23:51;;;;;;;0.50;0.50;;;;;;;11.28;83.06;96127.00;29395;246;63005;-57
2021/05/11 00:24:22;;;;;;;0.50;0.50;;;;;;;11.27;82.60;96126.19;29394;253;64009;-57
2021/05/11 00:24:53;;;;;;;0.50;0.50;;;;;;;11.25;83.17;96133.84;29395;224;63005;-57
2021/05/11 00:25:24;;;;;;;0.50;0.50;;;;;;;11.23;82.92;96121.72;29395;202;63009;-57
2021/05/11 00:25:56;;;;;;;0.50;0.50;;;;;;;11.21;82.79;96124.72;29395;224;63005;-57
2021/05/11 00:26:27;;;;;;;0.50;0.50;;;;;;;11.21;82.82;96123.94;29395;214;63018;-57
2021/05/11 00:26:58;;;;;;;0.50;0.50;;;;;;;11.21;82.55;96124.72;29395;207;63004;-57
2021/05/11 00:27:29;;;;;;;0.50;0.50;;;;;;;11.21;82.59;96121.22;29395;218;63009;-57
2021/05/11 00:28:02;;;;;;;0.50;0.50;;;;;;;11.21;82.54;96124.72;29395;261;63004;-57
2021/05/11 00:28:34;;;;;;;0.50;0.50;;;;;;;11.20;82.84;96117.69;29395;203;63009;-57
2021/05/11 00:29:06;;;;;;;0.50;0.50;;;;;;;11.20;82.95;96117.69;29395;197;63004;-57
2021/05/11 00:29:37;;;;;;;0.50;0.50;;;;;;;11.23;82.74;96122.50;29394;332;64008;-58
2021/05/11 00:30:11;;;;;;;0.50;0.50;;;;;;;11.26;82.68;96116.44;29395;210;63004;-58
2021/05/11 00:30:42;;;;;;;0.50;0.50;;;;;;;11.28;82.26;96119.66;29395;232;63009;-57
2021/05/11 00:31:13;;;;;;;0.50;0.50;;;;;;;11.33;82.17;96126.84;29395;392;63005;-57
2021/05/11 00:31:44;;;;;;;0.50;0.50;;;;;;;11.33;82.16;96127.66;29395;218;63009;-57
2021/05/11 00:32:16;;;;;;;0.50;0.50;;;;;;;11.33;82.17;96127.66;29395;212;63005;-57
2021/05/11 00:32:47;;;;;;;0.50;0.50;;;;;;;11.33;82.09;96133.09;29395;218;63009;-57
2021/05/11 00:33:20;;;;;;;0.50;0.50;;;;;;;11.32;82.46;96136.13;29395;276;63000;-57
2021/05/11 00:33:52;;;;;;;0.50;0.50;;;;;;;11.28;82.43;96130.50;29395;204;63009;-58
2021/05/11 00:34:23;;;;;;;0.50;0.50;;;;;;;11.27;82.75;96133.53;29394;203;64005;-57
2021/05/11 00:34:55;;;;;;;0.50;0.50;;;;;;;11.25;82.37;96131.13;29395;225;63009;-57
2021/05/11 00:35:26;;;;;;;0.50;0.50;;;;;;;11.24;82.42;96137.69;29395;211;63004;-57
2021/05/11 00:35:57;;;;;;;0.50;0.50;;;;;;;11.25;82.51;96136.56;29395;224;63009;-57
2021/05/11 00:36:29;;;;;;;0.50;0.50;;;;;;;11.26;82.39;96138.16;29395;312;63004;-57
2021/05/11 00:37:00;;;;;;;0.50;0.50;;;;;;;11.25;82.26;96142.00;29395;217;63009;-57
2021/05/11 00:37:36;;;;;;;0.50;0.50;;;;;;;11.26;82.20;96138.16;29395;211;63005;-57
2021/05/11 00:38:07;;;;;;;0.50;0.50;;;;;;;11.27;82.33;96144.41;29395;221;63009;-57
2021/05/11 00:38:38;;;;;;;0.50;0.50;;;;;;;11.27;82.43;96138.97;29394;226;64005;-56
2021/05/11 00:39:09;;;;;;;0.50;0.50;;;;;;;11.27;82.42;96142.50;29395;382;63009;-57
2021/05/11 00:39:40;;;;;;;0.50;0.50;;;;;;;11.27;82.31;96134.34;29395;264;63005;-57
2021/05/11 00:40:13;;;;;;;0.50;0.50;;;;;;;11.28;82.43;96137.84;29395;294;63009;-57
2021/05/11 00:40:44;;;;;;;0.50;0.50;;;;;;;11.27;82.49;96131.63;29395;202;63005;-57
2021/05/11 00:41:15;;;;;;;0.50;0.50;;;;;;;11.25;82.72;96125.72;29395;226;63012;-57
2021/05/11 00:41:46;;;;;;;0.60;0.60;;;;;;;11.28;82.33;96132.44;29395;277;63004;-58
2021/05/11 00:42:17;;;;;;;0.50;0.50;;;;;;;11.28;82.22;96125.09;29395;214;63009;-58
2021/05/11 00:42:49;;;;;;;0.50;0.50;;;;;;;11.30;82.33;96124.75;29395;202;63004;-58
2021/05/11 00:43:20;;;;;;;0.50;0.50;;;;;;;11.36;81.92;96127.03;29394;284;64009;-58
2021/05/11 00:43:51;;;;;;;0.50;0.50;;;;;;;11.39;81.52;96126.41;29395;230;63004;-57
2021/05/11 00:44:27;;;;;;;0.50;0.50;;;;;;;11.40;81.30;96133.44;29394;224;64001;-57
2021/05/11 00:44:58;;;;;;;0.50;0.50;;;;;;;11.39;81.31;96125.59;29395;221;63005;-57
2021/05/11 00:45:30;;;;;;;0.50;0.50;;;;;;;11.35;81.57;96122.72;29395;207;63009;-57
2021/05/11 00:46:01;;;;;;;0.57;0.57;;;;;;;11.33;81.66;96121.41;29395;297;63005;-57
2021/05/11 00:46:34;;;;;;;0.52;0.52;;;;;;;11.30;81.71;96122.84;29395;247;63009;-58
2021/05/11 00:47:06;;;;;;;0.50;0.50;;;;;;;11.28;81.98;96125.09;29395;221;63005;-58
2021/05/11 00:47:37;;;;;;;0.50;0.50;;;;;;;11.26;82.17;96121.87;29395;202;63009;-57
2021/05/11 00:48:09;;;;;;;0.55;0.55;;;;;;;11.24;82.29;96118.69;29395;305;63005;-57
2021/05/11 00:48:41;;;;;;;0.57;0.57;;;;;;;11.23;82.27;96116.28;29394;224;64023;-57
2021/05/11 00:49:12;;;;;;;0.60;0.60;;;;;;;11.22;82.25;96112.75;29395;306;63000;-57
2021/05/11 00:49:43;;;;;;;0.50;0.50;;;;;;;11.22;82.14;96114.66;29395;358;63009;-57
2021/05/11 00:50:18;;;;;;;0.55;0.55;;;;;;;11.22;82.58;96120.91;29395;301;63004;-57
2021/05/11 00:50:49;;;;;;;0.60;0.60;;;;;;;11.22;82.70;96114.66;29394;218;64009;-58
2021/05/11 00:51:21;;;;;;;0.50;0.50;;;;;;;11.23;82.59;96121.72;29395;238;63004;-58
2021/05/11 00:51:53;;;;;;;0.60;0.60;;;;;;;11.25;82.58;96123.00;29395;221;63008;-57
2021/05/11 00:52:24;;;;;;;0.50;0.50;;;;;;;11.26;82.56;96119.16;29395;227;63005;-57
2021/05/11 00:52:55;;;;;;;0.47;0.47;;;;;;;11.28;82.28;96125.09;29395;220;63009;-58
2021/05/11 00:53:27;;;;;;;0.50;0.50;;;;;;;11.32;82.17;96119.81;29394;254;64005;-58
2021/05/11 00:53:58;;;;;;;0.50;0.50;;;;;;;11.33;82.32;96122.22;29395;223;63027;-57
2021/05/11 00:54:30;;;;;;;0.50;0.50;;;;;;;11.32;82.14;96120.63;29395;242;63005;-57
2021/05/11 00:55:02;;;;;;;0.50;0.50;;;;;;;11.32;81.87;96122.53;29395;294;63017;-57
2021/05/11 00:55:34;;;;;;;0.60;0.60;;;;;;;11.32;82.00;96114.37;29395;215;63005;-57
2021/05/11 00:56:07;;;;;;;0.60;0.60;;;;;;;11.33;82.06;96119.50;29394;198;64009;-58
2021/05/11 00:56:39;;;;;;;0.50;0.50;;;;;;;11.31;82.40;96123.66;29395;203;63004;-58
2021/05/11 00:57:11;;;;;;;0.60;0.60;;;;;;;11.30;82.55;96127.47;29395;212;63009;-58
2021/05/11 00:57:42;;;;;;;0.60;0.60;;;;;;;11.28;82.67;96125.09;29395;227;63004;-56
2021/05/11 00:58:14;;;;;;;0.50;0.50;;;;;;;11.27;82.73;96134.34;29395;221;63009;-57
2021/05/11 00:58:46;;;;;;;0.50;0.50;;;;;;;11.27;82.94;96130.81;29395;227;63004;-57
2021/05/11 00:59:24;;;;;;;0.50;0.50;;;;;;;11.25;82.88;96135.78;29395;283;63008;-57
2021/05/11 00:59:57;;;;;;;0.50;0.50;;;;;;;11.24;82.80;96134.97;29395;220;63005;-57
2021/05/11 01:00:30;;;;;;;0.50;0.50;;;;;;;11.22;83.20;96137.19;29395;228;63009;-57
2021/05/11 01:01:02;;;;;;;0.50;0.50;;;;;;;11.23;82.85;96132.56;29395;214;63005;-58
2021/05/11 01:01:34;;;;;;;0.50;0.50;;;;;;;11.21;82.84;96135.59;29394;219;64009;-57
2021/05/11 01:02:07;;;;;;;0.50;0.50;;;;;;;11.22;82.81;96134.47;29395;224;63000;-57
2021/05/11 01:02:38;;;;;;;0.50;0.50;;;;;;;11.22;82.69;96133.69;29395;248;63009;-57
2021/05/11 01:03:09;;;;;;;0.50;0.50;;;;;;;11.22;82.56;96137.19;29395;239;63005;-57
2021/05/11 01:03:41;;;;;;;0.50;0.50;;;;;;;11.22;82.46;96137.19;29395;236;63009;-57
2021/05/11 01:04:13;;;;;;;0.50;0.50;;;;;;;11.22;82.57;96130.97;29395;230;63004;-57
2021/05/11 01:04:45;;;;;;;0.50;0.50;;;;;;;11.20;82.61;96128.56;29395;265;63009;-57
2021/05/11 01:05:17;;;;;;;0.50;0.50;;;;;;;11.19;82.71;96126.16;29395;218;63004;-57
2021/05/11 01:05:48;;;;;;;0.50;0.50;;;;;;;11.18;82.39;96125.38;29395;197;63009;-57
2021/05/11 01:06:19;;;;;;;0.50;0.50;;;;;;;11.18;82.81;96114.50;29395;204;63009;-57
2021/05/11 01:06:51;;;;;;;0.50;0.50;;;;;;;11.17;82.74;96112.91;29394;269;64008;-57
2021/05/11 01:07:23;;;;;;;0.50;0.50;;;;;;;11.17;82.76;96109.38;29395;214;63005;-57
2021/05/11 01:07:54;;;;;;;0.50;0.50;;;;;;;11.15;82.79;96103.47;29395;227;63009;-57
2021/05/11 01:08:25;;;;;;;0.50;0.50;;;;;;;11.14;82.38;96113.53;29395;225;63005;-56
2021/05/11 01:08:56;;;;;;;0.50;0.50;;;;;;;11.14;82.68;96102.66;29395;357;63009;-57
2021/05/11 01:09:27;;;;;;;0.60;0.60;;;;;;;11.15;82.57;96104.28;29395;240;63005;-58
2021/05/11 01:09:58;;;;;;;0.47;0.47;;;;;;;11.16;82.49;96095.00;29395;321;63009;-56
2021/05/11 01:10:30;;;;;;;0.50;0.50;;;;;;;11.16;82.68;96096.94;29395;204;63005;-56
2021/05/11 01:11:01;;;;;;;0.50;0.50;;;;;;;11.15;82.45;96093.41;29395;212;63009;-57
2021/05/11 01:11:34;;;;;;;0.50;0.50;;;;;;;11.15;82.67;96090.69;29395;202;63004;-56
2021/05/11 01:12:07;;;;;;;0.50;0.50;;;;;;;11.15;82.62;96087.97;29394;202;64009;-57
2021/05/11 01:12:39;;;;;;;0.50;0.50;;;;;;;11.14;82.73;96086.38;29395;324;63004;-57
2021/05/11 01:13:10;;;;;;;0.50;0.50;;;;;;;11.13;82.48;96084.78;29395;305;63009;-58
2021/05/11 01:13:41;;;;;;;0.50;0.50;;;;;;;11.14;82.50;96086.38;29395;219;63004;-57
2021/05/11 01:14:12;;;;;;;0.50;0.50;;;;;;;11.13;82.38;96084.78;29395;326;63008;-57
2021/05/11 01:14:45;;;;;;;0.50;0.50;;;;;;;11.14;82.36;96080.94;29395;215;63004;-57
2021/05/11 01:15:17;;;;;;;0.50;0.50;;;;;;;11.13;82.34;96073.91;29395;222;63009;-57
2021/05/11 01:15:51;;;;;;;0.43;0.43;;;;;;;11.13;82.44;96076.63;29395;197;63005;-58
2021/05/11 01:16:25;;;;;;;0.50;0.50;;;;;;;11.13;82.27;96079.34;29395;348;63009;-57
2021/05/11 01:16:59;;;;;;;0.50;0.50;;;;;;;11.14;82.19;96069.28;29395;252;63005;-57
2021/05/11 01:17:34;;;;;;;0.50;0.50;;;;;;;11.15;82.52;96081.75;29394;241;64009;-57
2021/05/11 01:18:08;;;;;;;0.50;0.50;;;;;;;11.15;82.41;96077.13;29395;276;63005;-56
2021/05/11 01:18:40;;;;;;;0.50;0.50;;;;;;;11.17;82.50;96074.88;29395;233;63009;-58
2021/05/11 01:19:15;;;;;;;0.50;0.50;;;;;;;11.18;82.47;96065.63;29395;274;63004;-57
2021/05/11 01:19:49;;;;;;;0.50;0.50;;;;;;;11.21;81.97;96072.34;29395;238;63009;-57
2021/05/11 01:20:35;;;;;;;0.50;0.50;;;;;;;11.23;82.37;96067.41;29395;199;63004;-58
2021/05/11 01:21:25;;;;;;;0.50;0.50;;;;;;;11.26;81.90;96067.56;29396;205;63009;-57
2021/05/11 01:24:36;;;;;;;0.50;0.50;;;;;;;11.24;82.77;96069.78;29396;271;63005;-57
2021/05/11 01:25:16;;;;;;;0.50;0.50;;;;;;;11.23;82.48;96067.41;29396;246;63009;-56
2021/05/11 01:25:50;;;;;;;0.50;0.50;;;;;;;11.22;82.55;96063.88;29396;218;63005;-57
2021/05/11 01:26:27;;;;;;;0.50;0.50;;;;;;;11.22;82.36;96073.94;29396;211;63009;-58
2021/05/11 01:27:08;;;;;;;0.60;0.60;;;;;;;11.22;82.57;96076.66;29396;212;63004;-57
2021/05/11 01:27:53;;;;;;;0.50;0.50;;;;;;;11.21;82.15;96070.44;29418;250;63009;-57
2021/05/11 01:28:35;;;;;;;0.60;0.60;;;;;;;11.22;82.02;96072.03;29395;219;64004;-57
2021/05/11 01:29:36;;;;;;;0.50;0.50;;;;;;;11.27;82.17;96074.59;29396;218;63008;-58
2021/05/11 01:33:13;;;;;;;0.50;0.50;;;;;;;11.43;80.75;96064.84;29396;203;63009;-57
2021/05/11 01:47:33;;;;;;;0.50;0.50;;;;;;;11.32;81.92;96071.72;29396;229;63005;-58
2021/05/11 01:48:31;;;;;;;0.50;0.50;;;;;;;11.31;81.76;96067.41;29396;239;63009;-57
2021/05/11 01:49:15;;;;;;;0.50;0.50;;;;;;;11.26;82.43;96070.28;29396;234;63004;-57
2021/05/11 01:50:04;;;;;;;0.50;0.50;;;;;;;11.24;82.38;96067.09;29395;222;64009;-57
2021/05/11 01:50:45;;;;;;;0.60;0.60;;;;;;;11.20;82.43;96057.97;29396;231;63004;-57
2021/05/11 01:52:32;;;;;;;0.60;0.60;;;;;;;11.18;82.33;96062.91;29422;261;64009;-57
2021/05/11 01:54:26;;;;;;;0.50;0.50;;;;;;;11.18;82.48;96053.97;29396;231;63009;-57
2021/05/11 01:55:18;;;;;;;0.50;0.50;;;;;;;11.16;82.56;96062.44;29396;224;63005;-57
2021/05/11 01:57:54;;;;;;;0.52;0.52;;;;;;;11.17;82.63;96066.75;29396;210;63009;-58
2021/05/11 01:58:50;;;;;;;0.50;0.50;;;;;;;11.17;82.28;96064.03;29418;294;63004;-57
2021/05/11 02:17:48;;;;;;;0.60;0.60;;;;;;;11.04;83.55;96082.06;29396;209;64004;-56
2021/05/11 02:22:57;;;;;;;0.60;0.60;;;;;;;10.91;84.01;96087.59;29395;268;64005;-58
2021/05/11 02:23:29;;;;;;;0.50;0.50;;;;;;;10.91;83.87;96087.59;29396;234;63009;-58
2021/05/11 02:24:00;;;;;;;0.50;0.50;;;;;;;10.94;84.02;96081.53;29396;228;63005;-58
2021/05/11 02:24:31;;;;;;;0.50;0.50;;;;;;;10.96;83.88;96079.31;29396;202;63009;-57
2021/05/11 02:25:04;;;;;;;0.50;0.50;;;;;;;10.97;83.72;96078.19;29395;214;64005;-57
2021/05/11 02:25:36;;;;;;;0.50;0.50;;;;;;;10.98;83.76;96077.88;29395;253;64009;-57
2021/05/11 02:26:07;;;;;;;0.50;0.50;;;;;;;10.99;83.60;96075.97;29395;224;64004;-57
2021/05/11 02:26:39;;;;;;;0.50;0.50;;;;;;;10.98;83.45;96077.09;29396;196;63004;-57
2021/05/11 02:27:10;;;;;;;0.50;0.50;;;;;;;10.97;84.09;96080.91;29396;221;63004;-57
2021/05/11 02:27:43;;;;;;;0.50;0.50;;;;;;;10.94;84.08;96076.91;29396;267;63009;-57
2021/05/11 02:28:14;;;;;;;0.50;0.50;;;;;;;10.94;84.18;96076.13;29395;214;64004;-57
2021/05/11 02:28:45;;;;;;;0.50;0.50;;;;;;;10.93;83.62;96077.22;29396;204;63008;-57
2021/05/11 02:29:16;;;;;;;0.50;0.50;;;;;;;10.92;83.84;96079.12;29396;257;63004;-57
2021/05/11 02:29:47;;;;;;;0.50;0.50;;;;;;;10.90;83.88;96077.84;29396;211;63009;-57
2021/05/11 02:30:19;;;;;;;0.50;0.50;;;;;;;10.90;84.38;96075.13;29396;214;63005;-57
2021/05/11 02:30:52;;;;;;;0.50;0.50;;;;;;;10.88;84.29;96075.44;29396;249;63009;-57
2021/05/11 02:31:23;;;;;;;0.60;0.60;;;;;;;10.89;84.29;96078.97;29395;288;64005;-57
2021/05/11 02:31:54;;;;;;;0.60;0.60;;;;;;;10.89;84.15;96079.75;29396;292;63009;-58
2021/05/11 02:32:25;;;;;;;0.50;0.50;;;;;;;10.90;83.97;96075.13;29396;216;63005;-57
2021/05/11 02:32:57;;;;;;;0.50;0.50;;;;;;;10.90;84.05;96078.66;29396;202;63009;-57
2021/05/11 02:33:28;;;;;;;0.55;0.55;;;;;;;10.91;84.08;96074.03;29396;214;63004;-57
2021/05/11 02:33:59;;;;;;;0.55;0.55;;;;;;;10.91;83.85;96076.75;29396;244;63009;-57
2021/05/11 02:34:31;;;;;;;0.50;0.50;;;;;;;10.90;84.06;96067.00;29396;236;63004;-57
2021/05/11 02:35:10;;;;;;;0.50;0.50;;;;;;;10.90;83.87;96064.28;29396;203;63009;-57
2021/05/11 02:35:41;;;;;;;0.50;0.50;;;;;;;10.89;84.15;96062.69;29396;208;63004;-57
2021/05/11 02:36:12;;;;;;;0.50;0.50;;;;;;;10.88;84.23;96064.59;29396;226;63009;-57
2021/05/11 02:36:43;;;;;;;0.60;0.60;;;;;;;10.88;84.28;96050.22;29395;250;64005;-57
2021/05/11 02:37:14;;;;;;;0.50;0.50;;;;;;;10.87;84.13;96048.62;29396;222;63009;-57
2021/05/11 02:37:46;;;;;;;0.50;0.50;;;;;;;10.85;83.95;96051.66;29396;202;63005;-57
2021/05/11 02:38:18;;;;;;;0.60;0.60;;;;;;;10.84;83.88;96051.97;29395;237;64009;-57
2021/05/11 02:38:49;;;;;;;0.50;0.50;;;;;;;10.84;84.24;96054.69;29396;240;63005;-57
2021/05/11 02:39:20;;;;;;;0.50;0.50;;;;;;;10.84;83.96;96049.25;29396;208;63005;-58
2021/05/11 02:39:51;;;;;;;0.50;0.50;;;;;;;10.85;83.83;96050.84;29396;203;63005;-57
2021/05/11 02:40:26;;;;;;;0.50;0.50;;;;;;;10.86;83.74;96058.69;29396;196;63009;-58
2021/05/11 02:40:57;;;;;;;0.60;0.60;;;;;;;10.87;83.76;96059.47;29396;217;63004;-57
2021/05/11 02:41:29;;;;;;;0.50;0.50;;;;;;;10.87;83.71;96068.41;29396;242;63009;-57
2021/05/11 02:42:00;;;;;;;0.50;0.50;;;;;;;10.89;83.69;96068.09;29395;217;64004;-57
2021/05/11 02:42:31;;;;;;;0.50;0.50;;;;;;;10.90;83.76;96069.72;29395;218;64009;-58
2021/05/11 02:43:15;;;;;;;0.50;0.50;;;;;;;10.90;83.67;96070.50;29396;206;63004;-57
2021/05/11 02:43:46;;;;;;;0.50;0.50;;;;;;;10.90;83.78;96070.50;29396;197;63009;-57
2021/05/11 02:44:20;;;;;;;0.50;0.50;;;;;;;10.91;83.57;96071.31;29396;203;63005;-57
2021/05/11 02:44:52;;;;;;;0.50;0.50;;;;;;;10.92;83.80;96072.91;29396;258;63009;-57
2021/05/11 02:45:23;;;;;;;0.50;0.50;;;;;;;10.93;83.83;96082.66;29396;210;63005;-58
2021/05/11 02:45:54;;;;;;;0.50;0.50;;;;;;;10.92;83.85;96081.06;29396;209;63009;-57
2021/05/11 02:46:25;;;;;;;0.50;0.50;;;;;;;10.91;84.23;96082.16;29396;202;63005;-57
2021/05/11 02:46:57;;;;;;;0.50;0.50;;;;;;;10.89;84.22;96078.97;29396;309;63009;-58
2021/05/11 02:47:28;;;;;;;0.50;0.50;;;;;;;10.88;84.46;96082.78;29396;202;63005;-58
2021/05/11 02:47:59;;;;;;;0.50;0.50;;;;;;;10.87;84.33;96087.41;29395;215;64009;-57
2021/05/11 02:48:30;;;;;;;0.60;0.60;;;;;;;10.87;84.08;96081.19;29396;285;63007;-58
2021/05/11 02:49:03;;;;;;;0.50;0.50;;;;;;;10.87;84.30;96075.75;29396;236;63009;-57
2021/05/11 02:49:38;;;;;;;0.50;0.50;;;;;;;10.88;83.93;96085.50;29396;210;63004;-58
2021/05/11 02:50:10;;;;;;;0.60;0.60;;;;;;;10.88;84.15;96082.78;29396;246;63009;-57
2021/05/11 02:50:41;;;;;;;0.47;0.47;;;;;;;10.87;84.10;96081.19;29396;266;63004;-57
2021/05/11 02:51:12;;;;;;;0.50;0.50;;;;;;;10.86;84.27;96091.25;29395;247;64008;-57
2021/05/11 02:51:43;;;;;;;0.50;0.50;;;;;;;10.85;84.47;96083.41;29396;220;63005;-57
2021/05/11 02:52:14;;;;;;;0.50;0.50;;;;;;;10.84;84.31;96093.47;29396;232;63009;-57
2021/05/11 02:52:47;;;;;;;0.50;0.50;;;;;;;10.83;84.59;96080.22;29396;209;63005;-57
2021/05/11 02:53:18;;;;;;;0.50;0.50;;;;;;;10.83;84.08;96081.00;29396;260;63009;-57
2021/05/11 02:53:49;;;;;;;0.50;0.50;;;;;;;10.84;84.36;96087.25;29396;277;63005;-57
2021/05/11 02:54:20;;;;;;;0.50;0.50;;;;;;;10.84;84.39;96081.81;29396;239;63009;-58
2021/05/11 02:54:56;;;;;;;0.60;0.60;;;;;;;10.84;84.20;96084.53;29396;199;64005;-57
2021/05/11 02:55:28;;;;;;;0.60;0.60;;;;;;;10.81;84.71;96087.88;29396;295;63009;-56
2021/05/11 02:55:59;;;;;;;0.50;0.50;;;;;;;10.79;85.21;96090.91;29396;218;63004;-57
2021/05/11 02:56:30;;;;;;;0.50;0.50;;;;;;;10.78;84.93;96088.50;29396;246;63009;-56
2021/05/11 02:57:01;;;;;;;0.50;0.50;;;;;;;10.78;85.12;96088.50;29396;210;63004;-57
2021/05/11 02:57:32;;;;;;;0.50;0.50;;;;;;;10.79;84.79;96095.53;29395;208;64009;-58
2021/05/11 02:58:03;;;;;;;0.50;0.50;;;;;;;10.80;84.60;96087.06;29396;242;63004;-57
2021/05/11 02:58:35;;;;;;;0.50;0.50;;;;;;;10.81;84.54;96088.66;29396;253;63004;-58
2021/05/11 02:59:10;;;;;;;0.50;0.50;;;;;;;10.81;84.75;96087.88;29396;216;63005;-55
2021/05/11 02:59:41;;;;;;;0.50;0.50;;;;;;;10.84;84.75;96087.25;29396;264;63009;-57
2021/05/11 03:00:18;;;;;;;0.50;0.50;;;;;;;10.87;84.24;96083.91;29396;198;63005;-57
2021/05/11 03:00:49;;;;;;;0.50;0.50;;;;;;;10.87;84.09;96089.34;29395;259;64009;-58
2021/05/11 03:01:20;;;;;;;0.50;0.50;;;;;;;10.87;83.99;96086.62;29396;301;63005;-57
2021/05/11 03:01:51;;;;;;;0.50;0.50;;;;;;;10.89;83.88;96087.09;29396;302;63009;-57
2021/05/11 03:02:22;;;;;;;0.50;0.50;;;;;;;10.90;84.21;96084.06;29396;270;63005;-57
2021/05/11 03:02:55;;;;;;;0.50;0.50;;;;;;;10.90;84.17;96080.56;29396;202;63009;-57
2021/05/11 03:03:26;;;;;;;0.50;0.50;;;;;;;10.90;84.40;96077.84;29395;283;64004;-57
2021/05/11 03:03:57;;;;;;;0.50;0.50;;;;;;;10.93;84.03;96079.94;29396;196;63009;-59
2021/05/11 03:04:28;;;;;;;0.50;0.50;;;;;;;11.00;83.64;96086.53;29396;221;63004;-58
2021/05/11 03:04:59;;;;;;;0.50;0.50;;;;;;;11.08;82.97;96082.22;29396;202;63009;-57
2021/05/11 03:05:31;;;;;;;0.50;0.50;;;;;;;11.09;83.04;96078.38;29396;208;63004;-57
2021/05/11 03:06:02;;;;;;;0.50;0.50;;;;;;;11.08;82.83;96077.59;29396;210;63008;-57
2021/05/11 03:06:33;;;;;;;0.50;0.50;;;;;;;11.06;82.98;96068.19;29396;277;63005;-57
2021/05/11 03:07:04;;;;;;;0.50;0.50;;;;;;;11.04;82.97;96073.91;29396;197;63018;-57
2021/05/11 03:07:37;;;;;;;0.50;0.50;;;;;;;11.02;83.18;96072.62;29396;237;63001;-57
2021/05/11 03:08:13;;;;;;;0.60;0.60;;;;;;;11.00;83.25;96066.72;29395;224;64009;-56
2021/05/11 03:08:44;;;;;;;0.50;0.50;;;;;;;10.99;83.26;96073.25;29397;213;63005;-57
2021/05/11 03:09:17;;;;;;;0.50;0.50;;;;;;;11.00;82.91;96069.44;29397;237;63005;-59
2021/05/11 03:09:48;;;;;;;0.50;0.50;;;;;;;11.02;83.15;96075.34;29397;210;63005;-57
2021/05/11 03:10:20;;;;;;;0.50;0.50;;;;;;;11.02;83.06;96078.06;29395;301;63009;-57
2021/05/11 03:10:54;;;;;;;0.50;0.50;;;;;;;11.00;83.23;96075.66;29395;275;63000;-57
2021/05/11 03:11:26;;;;;;;0.50;0.50;;;;;;;11.01;83.17;96079.16;29396;218;63009;-57
2021/05/11 03:11:57;;;;;;;0.50;0.50;;;;;;;11.00;83.39;96074.84;29395;275;63004;-57
2021/05/11 03:12:28;;;;;;;0.50;0.50;;;;;;;10.99;83.37;96078.69;29394;214;64009;-57
2021/05/11 03:12:59;;;;;;;0.50;0.50;;;;;;;10.96;83.25;96080.12;29395;222;63004;-57
2021/05/11 03:13:31;;;;;;;0.50;0.50;;;;;;;10.94;83.89;96073.41;29393;215;64008;-57
2021/05/11 03:14:04;;;;;;;0.50;0.50;;;;;;;10.91;83.74;96074.03;29395;220;63996;-57
2021/05/11 03:14:35;;;;;;;0.50;0.50;;;;;;;10.90;83.84;96075.13;29395;254;63009;-58
2021/05/11 03:15:08;;;;;;;0.50;0.50;;;;;;;10.89;84.12;96073.53;29395;218;63005;-57
2021/05/11 03:15:39;;;;;;;0.50;0.50;;;;;;;10.89;83.75;96078.97;29395;205;63009;-59
2021/05/11 03:16:10;;;;;;;0.50;0.50;;;;;;;10.91;83.95;96079.44;29395;239;63005;-57
2021/05/11 03:16:41;;;;;;;0.50;0.50;;;;;;;10.90;83.48;96075.94;29395;206;63009;-57
2021/05/11 03:17:13;;;;;;;0.50;0.50;;;;;;;10.90;83.66;96080.56;29395;223;63005;-57
2021/05/11 03:17:44;;;;;;;0.50;0.50;;;;;;;10.87;83.75;96075.75;29394;310;63009;-57
2021/05/11 03:18:15;;;;;;;0.50;0.50;;;;;;;10.85;83.89;96073.38;29395;268;63004;-57
2021/05/11 03:18:46;;;;;;;0.55;0.55;;;;;;;10.85;83.72;96078.00;29393;338;64009;-57
2021/05/11 03:19:17;;;;;;;0.50;0.50;;;;;;;10.84;84.08;96070.97;29395;291;63010;-58
2021/05/11 03:19:48;;;;;;;0.50;0.50;;;;;;;10.83;83.98;96072.06;29395;227;63016;-57
2021/05/11 03:20:19;;;;;;;0.50;0.50;;;;;;;10.81;84.09;96066.16;29395;301;63000;-58
2021/05/11 03:20:50;;;;;;;0.50;0.50;;;;;;;10.79;84.10;96071.09;29395;198;63008;-57
2021/05/11 03:21:21;;;;;;;0.50;0.50;;;;;;;10.77;84.17;96071.41;29395;209;63004;-57
2021/05/11 03:21:56;;;;;;;0.50;0.50;;;;;;;10.77;84.08;96073.31;29395;301;63019;-57
2021/05/11 03:22:27;;;;;;;0.50;0.50;;;;;;;10.77;84.17;96070.59;29395;211;63017;-57
2021/05/11 03:22:58;;;;;;;0.50;0.50;;;;;;;10.74;84.37;96078.25;29395;234;63009;-57